Aquidauana, Brazil
Current Conditions -  °F | °C
As of 10:00 AM on Saturday 25 Oct 2014 (Local Time) from SBPP Reporting Station
Scattered Clouds Scattered Clouds  
Wind Chill: 75°   Ceiling: Unl
Heat Index: 75°   Visibility: 6mi
Dew Point: 64°   Wind: 7mph
Humidity: 69%   Direction: 40°NE
Pressure: 30"   Gusts: NA
Location:  20.47°S, 55.79°W
Report Text: SBPP 251300Z 04006KT 9999 FEW019 SCT080 24/18 Q1016
Loading
Personal Weather Stations






























Interactive Weather Map
Tropical Storm Tracking
New forecast layout! Learn more

10-Day Weather Forecast

Advertisements
Track Severe Weather on mobile